Time;durP1;ratioP1;P1;durP2;ratioP2;P2;SDS_P1;SDS_P2;PMS_P1;PMS_P2;Temp;Humidity;BMP_temperature;BMP_pressure;BME280_temperature;BME280_humidity;BME280_pressure;Samples;Min_cycle;Max_cycle;Signal;HPM_P1;HPM_P2
2023/01/10 00:01:48;;;;;;;22.20;9.60;;;6.40;93.50;;;5.54;85.22;100174.44;4973440;28;20612;-70
2023/01/10 00:04:16;;;;;;;21.17;9.57;;;6.40;93.50;;;5.55;85.38;100172.59;4973290;28;20700;-70
2023/01/10 00:06:45;;;;;;;20.20;10.53;;;6.40;93.60;;;5.60;85.29;100173.03;4972895;28;20205;-70
2023/01/10 00:09:14;;;;;;;15.63;9.93;;;6.50;93.60;;;5.60;85.47;100192.44;4973311;28;20205;-70
2023/01/10 00:14:28;;;;;;;23.30;10.57;;;6.50;93.70;;;5.62;85.11;100193.13;4973317;28;20209;-71
2023/01/10 00:16:57;;;;;;;19.67;10.57;;;6.50;93.50;;;5.65;85.35;100201.81;4973466;28;20263;-70
2023/01/10 00:19:25;;;;;;;19.43;9.87;;;6.50;93.40;;;5.67;85.66;100210.47;4973114;28;20702;-70
2023/01/10 00:21:56;;;;;;;16.00;10.03;;;6.50;93.40;;;5.66;85.22;100209.63;4973068;28;20229;-70
2023/01/10 00:24:25;;;;;;;18.73;10.40;;;6.50;93.40;;;5.66;85.29;100209.63;4984967;28;20203;-70
2023/01/10 00:26:53;;;;;;;17.93;10.00;;;6.50;93.40;;;5.70;85.11;100204.88;4991472;28;20220;-70
2023/01/10 00:29:25;;;;;;;16.80;10.67;;;6.60;93.30;;;5.67;85.16;100206.00;4992810;28;20239;-70
2023/01/10 00:31:53;;;;;;;18.53;11.53;;;6.60;93.30;;;5.66;84.86;100208.78;4992566;28;20303;-71
2023/01/10 00:34:21;;;;;;;23.33;11.97;;;6.50;93.30;;;5.63;85.49;100221.38;4992544;28;20223;-71
2023/01/10 00:36:49;;;;;;;20.17;11.17;;;6.50;93.40;;;5.61;85.13;100226.00;4992091;28;20204;-71
2023/01/10 00:39:19;;;;;;;20.77;11.33;;;6.50;93.40;;;5.62;85.44;100225.00;4992067;28;20211;-71
2023/01/10 00:44:33;;;;;;;18.63;11.17;;;6.50;93.40;;;5.66;85.57;100235.34;4992005;28;20681;-71
2023/01/10 00:47:01;;;;;;;18.77;11.50;;;6.50;93.50;;;5.65;85.24;100245.13;4991669;28;20231;-68
2023/01/10 00:49:30;;;;;;;16.80;10.67;;;6.50;93.50;;;5.65;85.39;100249.63;4991923;28;20582;-70
2023/01/10 00:51:58;;;;;;;24.00;12.40;;;6.50;93.40;;;5.64;85.05;100254.09;4991981;28;20580;-69
2023/01/10 00:54:28;;;;;;;20.70;11.27;;;6.50;93.40;;;5.66;85.49;100265.41;5001908;28;20660;-69
2023/01/10 00:56:56;;;;;;;17.23;11.63;;;6.50;93.50;;;5.67;85.47;100275.06;5011566;28;20218;-70
2023/01/10 00:59:24;;;;;;;23.03;12.70;;;6.50;93.50;;;5.67;85.44;100279.53;5011767;28;20219;-69
2023/01/10 01:01:53;;;;;;;17.17;12.07;;;6.50;93.50;;;5.68;85.38;100291.81;5011497;28;20226;-70
2023/01/10 01:04:22;;;;;;;15.70;10.43;;;6.50;93.40;;;5.70;85.74;100287.19;5011469;28;20725;-69
2023/01/10 01:06:50;;;;;;;18.23;11.50;;;6.60;93.50;;;5.68;85.12;100292.66;5011494;28;20214;-70
2023/01/10 01:09:18;;;;;;;19.43;12.10;;;6.60;93.30;;;5.67;85.27;100304.25;5011628;28;20212;-70
2023/01/10 01:11:48;;;;;;;20.50;12.27;;;6.50;93.40;;;5.69;85.34;100309.41;5011785;28;20203;-70
2023/01/10 01:14:16;;;;;;;19.57;12.97;;;6.50;93.50;;;5.67;85.68;100311.38;5011317;28;20699;-70
2023/01/10 01:16:44;;;;;;;18.73;12.30;;;6.50;93.50;;;5.68;85.61;100313.06;5011022;28;20215;-70
2023/01/10 01:19:12;;;;;;;19.10;11.97;;;6.50;93.40;;;5.68;85.33;100323.69;5011526;28;20208;-70
2023/01/10 01:21:41;;;;;;;20.80;12.80;;;6.50;93.40;;;5.66;85.07;100325.63;5011490;28;20242;-70
2023/01/10 01:24:10;;;;;;;19.57;12.57;;;6.50;93.40;;;5.65;85.47;100339.91;5011126;28;20218;-69
2023/01/10 01:26:41;;;;;;;18.93;12.70;;;6.50;93.50;;;5.66;85.53;100336.25;5010708;28;20208;-70
2023/01/10 01:29:10;;;;;;;17.87;12.20;;;6.50;93.50;;;5.66;85.40;100341.56;5010819;28;20211;-69
2023/01/10 01:31:38;;;;;;;21.93;13.23;;;6.50;93.50;;;5.66;85.49;100349.53;5010710;28;20207;-70
2023/01/10 01:34:07;;;;;;;23.30;13.07;;;6.50;93.50;;;5.67;85.04;100353.88;5011056;28;20255;-69
2023/01/10 01:36:35;;;;;;;21.53;12.93;;;6.50;93.30;;;5.65;84.84;100366.47;5010859;28;20215;-69
2023/01/10 01:39:05;;;;;;;20.40;13.70;;;6.50;93.30;;;5.67;85.36;100375.13;5010890;28;20207;-69
2023/01/10 01:44:20;;;;;;;22.43;13.33;;;6.50;93.40;;;5.62;85.29;100371.06;5010554;28;20207;-70
2023/01/10 01:47:00;;;;;;;18.93;13.30;;;6.50;93.40;;;5.61;84.99;100382.69;5010453;28;20261;-69
2023/01/10 01:49:30;;;;;;;19.43;12.30;;;6.50;93.50;;;5.61;85.59;100393.31;5010569;28;20207;-70
2023/01/10 01:52:07;;;;;;;18.97;12.67;;;6.50;93.50;;;5.61;85.85;100398.63;5010909;28;20207;-70
2023/01/10 01:54:36;;;;;;;22.97;14.20;;;6.50;93.60;;;5.61;85.49;100398.63;4999026;28;20200;-70
2023/01/10 01:57:10;;;;;;;21.97;14.37;;;6.50;93.70;;;5.61;85.87;100408.41;4990850;28;20251;-70
2023/01/10 01:59:44;;;;;;;20.97;12.87;;;6.50;93.60;;;5.59;85.43;100410.34;4991098;28;20214;-70
2023/01/10 02:02:19;;;;;;;18.90;13.10;;;6.50;93.70;;;5.61;85.47;100414.56;4991170;28;20305;-70
2023/01/10 02:04:55;;;;;;;20.43;13.83;;;6.50;93.60;;;5.61;85.45;100419.03;4990023;28;20712;-70
2023/01/10 02:07:28;;;;;;;17.17;12.63;;;6.50;93.60;;;5.67;85.50;100422.94;4990333;28;20243;-70
2023/01/10 02:10:01;;;;;;;19.83;13.27;;;6.50;93.60;;;5.65;85.60;100424.91;4990881;28;20208;-69
2023/01/10 02:12:31;;;;;;;19.80;13.47;;;6.50;93.50;;;5.69;85.56;100432.44;4990744;28;20211;-69
2023/01/10 02:15:04;;;;;;;21.73;13.40;;;6.60;93.50;;;5.66;85.61;100437.19;4990691;28;20219;-70
2023/01/10 02:17:32;;;;;;;18.90;13.60;;;6.50;93.50;;;5.66;85.75;100437.19;4990210;28;20287;-70
2023/01/10 02:20:06;;;;;;;18.73;12.67;;;6.50;93.40;;;5.62;84.98;100441.91;4990587;28;20209;-69
2023/01/10 02:23:12;;;;;;;18.87;12.90;;;6.50;93.30;;;5.62;84.94;100448.06;4990488;28;20600;-69
2023/01/10 02:26:17;;;;;;;20.27;12.80;;;6.50;93.40;;;5.65;85.58;100462.06;4990336;28;20215;-69
2023/01/10 02:29:27;;;;;;;20.83;12.73;;;6.50;93.40;;;5.66;85.45;100464.59;4990610;28;20505;-70
2023/01/10 02:32:28;;;;;;;16.67;11.87;;;6.50;93.40;;;5.63;85.61;100464.84;4990520;28;20278;-70
2023/01/10 02:35:35;;;;;;;17.60;12.13;;;6.50;93.40;;;5.64;85.41;100469.19;4990260;28;20577;-70
2023/01/10 02:38:17;;;;;;;19.20;12.50;;;6.50;93.50;;;5.62;85.30;100466.66;4990180;28;20577;-70
2023/01/10 02:41:01;;;;;;;17.40;11.87;;;6.50;93.30;;;5.62;85.36;100479.94;4990626;28;20199;-70
2023/01/10 02:43:35;;;;;;;20.73;13.53;;;6.50;93.40;;;5.60;86.31;100476.59;4990042;28;20608;-70
2023/01/10 02:46:10;;;;;;;20.73;13.40;;;6.50;93.70;;;5.56;86.74;100480.50;4989914;28;20215;-70
2023/01/10 02:48:40;;;;;;;19.87;11.47;;;6.40;94.00;;;5.49;86.57;100484.66;4989915;28;20715;-70
2023/01/10 02:51:18;;;;;;;18.77;11.17;;;6.40;94.20;;;5.47;86.95;100486.63;4990047;28;20219;-70
2023/01/10 02:53:53;;;;;;;13.70;9.00;;;6.40;94.30;;;5.47;86.49;100493.75;4994818;28;20203;-70
2023/01/10 02:56:58;;;;;;;14.93;10.30;;;6.40;94.10;;;5.46;86.80;100495.56;5009278;28;20207;-70
2023/01/10 02:59:54;;;;;;;15.37;10.10;;;6.30;94.20;;;5.48;86.83;100493.59;5010004;28;20207;-70
2023/01/10 03:02:37;;;;;;;16.50;10.90;;;6.30;94.40;;;5.45;87.64;100496.50;5005786;28;20211;-70
2023/01/10 03:05:22;;;;;;;16.23;10.60;;;6.30;94.60;;;5.45;87.91;100500.97;4990025;28;20243;-70
2023/01/10 03:08:00;;;;;;;18.07;11.63;;;6.30;94.60;;;5.42;87.07;100509.22;4989819;28;20232;-71
2023/01/10 03:10:37;;;;;;;18.77;12.03;;;6.30;94.60;;;5.44;87.62;100518.75;4990355;28;20212;-70
2023/01/10 03:13:15;;;;;;;18.07;12.27;;;6.30;94.60;;;5.48;87.84;100517.47;4989913;28;20266;-70
2023/01/10 03:15:46;;;;;;;17.43;11.37;;;6.30;94.60;;;5.47;87.21;100518.47;4990455;28;20583;-69
2023/01/10 03:18:22;;;;;;;18.77;12.10;;;6.30;94.70;;;5.45;87.45;100516.91;4993734;28;20228;-69
2023/01/10 03:20:53;;;;;;;14.93;10.30;;;6.30;94.70;;;5.47;87.43;100528.25;4992688;28;20207;-70
2023/01/10 03:23:25;;;;;;;17.13;10.67;;;6.40;94.60;;;5.46;87.73;100526.56;4993045;28;20262;-70
2023/01/10 03:25:57;;;;;;;17.73;10.63;;;6.30;94.60;;;5.46;87.66;100529.22;4993463;28;20216;-70
2023/01/10 03:28:31;;;;;;;15.03;10.13;;;6.40;94.70;;;5.46;87.60;100531.88;4993563;28;20224;-70
2023/01/10 03:31:08;;;;;;;20.53;12.97;;;6.30;94.60;;;5.44;87.28;100539.16;4986657;28;20222;-70
2023/01/10 03:33:38;;;;;;;16.83;9.77;;;6.30;94.50;;;5.41;87.56;100539.41;4992185;28;20258;-70
2023/01/10 03:36:19;;;;;;;15.37;8.70;;;6.30;94.50;;;5.38;87.52;100548.47;4992827;28;20751;-71
2023/01/10 03:38:53;;;;;;;16.83;8.57;;;6.30;94.50;;;5.37;87.00;100549.44;4993552;28;20282;-63
2023/01/10 03:41:36;;;;;;;17.17;8.67;;;6.30;94.40;;;5.37;87.38;100554.75;4992896;28;20208;-71
2023/01/10 03:47:28;;;;;;;13.33;7.90;;;6.30;94.40;;;5.36;87.59;100563.69;4968122;28;20294;-71
2023/01/10 03:50:02;;;;;;;17.47;8.60;;;6.20;94.50;;;5.37;86.92;100565.38;4993533;28;20204;-71
2023/01/10 03:52:35;;;;;;;21.03;8.13;;;6.30;94.30;;;5.38;86.80;100577.66;4993160;28;20250;-72
2023/01/10 03:55:05;;;;;;;18.17;8.87;;;6.30;94.30;;;5.37;87.08;100576.00;5008490;28;20207;-71
2023/01/10 03:57:33;;;;;;;13.37;8.10;;;6.20;94.30;;;5.33;86.96;100579.88;5012787;28;20589;-71
2023/01/10 04:00:03;;;;;;;14.47;7.30;;;6.20;94.20;;;5.30;86.98;100574.84;5012791;28;20258;-71
2023/01/10 04:02:32;;;;;;;15.47;7.23;;;6.20;94.30;;;5.29;86.59;100591.72;5012869;28;20216;-71
2023/01/10 04:05:00;;;;;;;13.47;7.10;;;6.20;94.30;;;5.31;87.15;100596.91;5012811;28;20285;-71
2023/01/10 04:07:28;;;;;;;13.80;7.00;;;6.20;94.20;;;5.33;86.73;100598.47;5012814;28;20227;-72
2023/01/10 04:09:58;;;;;;;17.27;6.40;;;6.20;94.20;;;5.31;86.77;100608.34;5012922;28;20214;-71
2023/01/10 04:12:26;;;;;;;17.63;6.27;;;6.20;94.10;;;5.31;86.86;100612.84;5013236;28;20223;-71
2023/01/10 04:14:55;;;;;;;17.30;6.80;;;6.20;94.20;;;5.31;87.03;100615.50;5012928;28;20655;-71
2023/01/10 04:17:23;;;;;;;12.83;5.93;;;6.20;94.20;;;5.33;86.71;100617.03;5012234;28;20223;-71
2023/01/10 04:19:51;;;;;;;14.33;5.93;;;6.20;94.20;;;5.34;86.17;100618.72;5012790;28;20211;-71
2023/01/10 04:22:19;;;;;;;15.70;5.80;;;6.20;94.00;;;5.35;86.62;100627.50;5012857;28;20204;-71
2023/01/10 04:24:50;;;;;;;11.43;4.97;;;6.20;94.00;;;5.35;86.13;100625.72;5011854;28;20231;-72
2023/01/10 04:27:20;;;;;;;12.20;4.83;;;6.30;94.00;;;5.39;86.78;100637.75;5011167;28;20716;-71
2023/01/10 04:29:48;;;;;;;12.00;5.00;;;6.20;94.00;;;5.37;86.73;100639.72;5012595;28;20233;-72
2023/01/10 04:32:16;;;;;;;14.10;5.40;;;6.30;94.00;;;5.36;85.94;100651.28;5012199;28;20219;-71
2023/01/10 04:34:44;;;;;;;12.10;5.17;;;6.30;93.90;;;5.39;86.32;100648.38;5012357;28;20204;-71
2023/01/10 04:37:12;;;;;;;14.90;5.37;;;6.30;93.90;;;5.37;86.04;100653.00;5011848;28;20227;-71
2023/01/10 04:39:41;;;;;;;14.00;4.80;;;6.30;93.90;;;5.38;86.06;100662.63;5012249;28;20207;-71
2023/01/10 04:42:09;;;;;;;14.77;5.10;;;6.30;93.90;;;5.37;86.34;100666.25;5011933;28;20227;-70
2023/01/10 04:44:38;;;;;;;12.60;5.43;;;6.30;94.00;;;5.38;86.85;100673.22;5012273;28;20219;-71
2023/01/10 04:47:06;;;;;;;14.90;5.13;;;6.30;94.00;;;5.36;86.11;100677.84;5011805;28;20235;-71
2023/01/10 04:49:34;;;;;;;16.90;4.80;;;6.30;93.90;;;5.38;86.29;100683.00;5012051;28;20223;-70
2023/01/10 04:52:02;;;;;;;15.90;5.40;;;6.20;94.00;;;5.39;86.53;100680.22;5011691;28;20596;-71
2023/01/10 04:54:30;;;;;;;15.43;5.53;;;6.30;94.00;;;5.41;86.15;100683.59;5000646;28;20204;-71
2023/01/10 04:56:58;;;;;;;14.77;5.30;;;6.30;93.90;;;5.44;86.16;100691.31;4991670;28;20779;-71
2023/01/10 04:59:26;;;;;;;14.10;5.40;;;6.30;93.80;;;5.42;85.49;100695.06;4992385;28;20240;-71
2023/01/10 05:01:57;;;;;;;14.20;5.40;;;6.30;93.70;;;5.42;85.73;100700.38;4992094;28;20204;-71
2023/01/10 05:04:25;;;;;;;14.77;5.33;;;6.30;93.70;;;5.42;85.43;100701.22;4992023;28;20228;-71
2023/01/10 05:06:54;;;;;;;15.63;5.67;;;6.30;93.50;;;5.48;85.67;100713.97;4991696;28;20664;-71
2023/01/10 05:09:22;;;;;;;17.87;6.43;;;6.40;93.50;;;5.47;84.93;100714.97;4992113;28;20219;-71
2023/01/10 05:11:50;;;;;;;18.17;5.50;;;6.40;93.40;;;5.47;84.73;100709.66;4992092;28;20231;-71
2023/01/10 05:14:18;;;;;;;16.73;5.53;;;6.40;93.20;;;5.47;85.30;100714.97;4991805;28;20208;-71
2023/01/10 05:16:46;;;;;;;18.80;5.43;;;6.30;93.30;;;5.45;84.82;100711.56;4991745;28;20208;-71
2023/01/10 05:19:15;;;;;;;20.53;5.43;;;6.40;93.30;;;5.48;84.22;100715.81;4991910;28;20218;-71
2023/01/10 05:21:43;;;;;;;19.27;5.03;;;6.40;93.10;;;5.46;84.23;100723.03;4991550;28;20215;-71
2023/01/10 05:24:12;;;;;;;17.83;5.43;;;6.30;92.90;;;5.45;84.64;100724.84;4990882;28;20476;-71
2023/01/10 05:26:40;;;;;;;16.10;5.53;;;6.30;93.00;;;5.43;84.75;100724.16;4991168;28;20201;-71
2023/01/10 05:29:10;;;;;;;16.90;5.07;;;6.30;93.10;;;5.40;84.50;100729.72;4990204;28;20208;-71
2023/01/10 05:31:38;;;;;;;15.47;5.27;;;6.30;93.10;;;5.38;84.53;100736.94;4990294;28;20193;-71
2023/01/10 05:34:07;;;;;;;20.83;5.17;;;6.30;93.10;;;5.37;84.76;100745.91;4991639;28;20208;-70
2023/01/10 05:36:36;;;;;;;13.00;5.13;;;6.30;93.10;;;5.33;84.38;100759.53;4990788;28;20208;-71
2023/01/10 05:39:04;;;;;;;17.10;5.57;;;6.20;92.80;;;5.29;84.31;100758.97;4991802;28;20207;-71
2023/01/10 05:41:32;;;;;;;16.20;5.10;;;6.20;92.80;;;5.30;84.46;100759.81;4991155;28;20216;-71
2023/01/10 05:44:01;;;;;;;18.93;5.80;;;6.10;92.90;;;5.24;84.13;100771.75;4991105;28;20204;-71
2023/01/10 05:46:29;;;;;;;14.73;4.97;;;6.10;92.90;;;5.20;83.95;100764.19;4991191;28;20208;-71
2023/01/10 05:48:57;;;;;;;13.07;4.90;;;6.10;92.90;;;5.18;84.31;100769.59;4990958;28;20709;-71
2023/01/10 05:51:25;;;;;;;15.20;5.10;;;6.10;92.90;;;5.22;83.59;100780.81;4991157;28;20578;-71
2023/01/10 05:53:55;;;;;;;16.27;5.13;;;6.00;92.90;;;5.19;83.44;100781.91;4996814;28;20294;-70
2023/01/10 05:56:23;;;;;;;16.50;5.40;;;6.00;92.70;;;5.17;84.14;100786.50;5010743;28;20215;-70
2023/01/10 05:58:51;;;;;;;18.23;5.53;;;6.00;92.90;;;5.15;83.84;100799.03;5010812;28;20231;-71
2023/01/10 06:01:32;;;;;;;14.03;4.97;;;6.00;92.80;;;5.07;83.83;100802.31;5011164;28;20210;-71
2023/01/10 06:04:00;;;;;;;16.37;5.13;;;6.00;92.70;;;5.05;83.77;100808.72;5010469;28;20262;-71
2023/01/10 06:06:28;;;;;;;19.30;6.37;;;5.90;92.80;;;5.03;84.14;100811.47;5010340;28;20691;-70
2023/01/10 06:08:58;;;;;;;18.07;5.20;;;5.90;93.00;;;4.98;84.37;100812.84;5010232;28;20234;-71
2023/01/10 06:11:28;;;;;;;13.03;4.93;;;5.90;92.90;;;4.95;83.90;100813.94;5010462;28;20212;-71
2023/01/10 06:13:57;;;;;;;17.47;5.17;;;5.80;93.00;;;4.88;84.48;100822.50;5010469;28;20214;-71
2023/01/10 06:16:25;;;;;;;15.43;5.13;;;5.70;93.10;;;4.85;84.44;100828.03;5009979;28;20692;-71
2023/01/10 06:18:53;;;;;;;21.00;5.73;;;5.70;93.00;;;4.84;84.33;100832.50;5010187;28;20239;-68
2023/01/10 06:21:21;;;;;;;17.83;6.23;;;5.70;92.90;;;4.87;84.78;100839.38;5009816;28;20647;-70
2023/01/10 06:23:49;;;;;;;22.20;6.83;;;5.70;93.00;;;4.88;84.13;100849.00;5005654;28;20219;-70
2023/01/10 06:26:18;;;;;;;16.27;6.33;;;5.80;92.90;;;4.88;83.86;100844.56;4990194;28;20216;-70
2023/01/10 06:28:46;;;;;;;19.97;6.90;;;5.80;92.80;;;4.89;84.14;100854.22;4989985;28;20224;-71
2023/01/10 06:31:15;;;;;;;17.00;6.60;;;5.80;92.90;;;4.92;84.01;100855.78;4990725;28;20208;-72
2023/01/10 06:33:43;;;;;;;19.27;7.23;;;5.80;92.90;;;4.92;84.06;100858.44;4990303;28;20272;-71
2023/01/10 06:36:11;;;;;;;19.80;7.63;;;5.80;92.80;;;4.91;84.19;100873.50;4990209;28;20216;-69
2023/01/10 06:38:39;;;;;;;20.10;7.27;;;5.80;92.60;;;4.90;83.91;100876.25;4989886;28;20607;-69
2023/01/10 06:41:12;;;;;;;15.53;7.67;;;5.80;92.70;;;4.90;84.31;100886.88;4990397;28;20219;-69
2023/01/10 06:43:44;;;;;;;14.93;7.13;;;5.80;92.80;;;4.93;83.79;100886.66;4989958;28;20603;-69
2023/01/10 06:46:12;;;;;;;16.77;7.17;;;5.80;92.80;;;4.92;83.96;100892.91;4990099;28;20224;-69
2023/01/10 06:48:42;;;;;;;25.47;7.67;;;5.80;92.70;;;4.94;83.86;100902.44;4990170;28;20334;-69
2023/01/10 06:51:11;;;;;;;21.07;8.30;;;5.80;92.60;;;4.92;83.18;100895.56;4989670;28;20684;-69
2023/01/10 06:53:39;;;;;;;19.70;7.63;;;5.80;92.50;;;4.91;83.60;100907.13;4994093;28;20546;-69
2023/01/10 06:56:08;;;;;;;19.23;7.30;;;5.80;92.50;;;4.89;83.25;100907.28;5009396;28;20582;-70
2023/01/10 06:58:38;;;;;;;25.70;7.53;;;5.80;92.40;;;4.87;82.95;100911.84;5010047;28;20224;-69
2023/01/10 07:01:13;;;;;;;23.20;7.93;;;5.80;92.80;;;4.84;82.67;100916.53;5010003;28;20203;-69
2023/01/10 07:03:42;;;;;;;19.93;7.60;;;5.80;92.40;;;4.82;83.08;100916.66;5009864;28;20238;-69
2023/01/10 07:06:10;;;;;;;15.70;7.03;;;5.70;92.40;;;4.81;83.20;100914.97;5009207;28;20871;-69
2023/01/10 07:08:40;;;;;;;22.47;7.60;;;5.70;92.40;;;4.81;83.28;100919.44;5009966;28;20310;-69
2023/01/10 07:11:10;;;;;;;17.60;7.73;;;5.70;92.40;;;4.82;83.49;100919.31;5009891;28;20233;-69
2023/01/10 07:13:38;;;;;;;21.07;8.20;;;5.70;92.40;;;4.80;83.59;100917.72;5009918;28;20214;-70
2023/01/10 07:16:11;;;;;;;17.37;8.17;;;5.70;92.40;;;4.80;83.63;100929.19;5009176;28;20210;-70
2023/01/10 07:18:42;;;;;;;34.30;9.87;;;5.70;92.50;;;4.82;83.12;100934.38;5009792;28;20285;-70
2023/01/10 07:21:11;;;;;;;45.30;11.60;;;5.70;92.40;;;4.80;83.30;100933.66;5009827;28;20199;-70
2023/01/10 07:23:39;;;;;;;29.63;10.30;;;5.70;92.50;;;4.83;83.35;100936.09;5009735;28;20215;-69
2023/01/10 07:26:16;;;;;;;26.40;8.50;;;5.70;92.50;;;4.83;83.98;100936.09;5009379;28;20231;-69
2023/01/10 07:28:44;;;;;;;22.67;7.90;;;5.70;92.60;;;4.82;83.43;100937.03;5009347;28;20838;-69
2023/01/10 07:31:15;;;;;;;18.30;7.60;;;5.70;92.60;;;4.79;83.60;100945.25;5009550;28;20280;-70
2023/01/10 07:33:43;;;;;;;18.43;7.50;;;5.60;92.60;;;4.77;83.81;100941.84;5009227;28;20571;-70
2023/01/10 07:36:12;;;;;;;24.10;8.40;;;5.70;92.80;;;4.79;84.10;100946.09;5009247;28;20206;-69
2023/01/10 07:38:40;;;;;;;20.40;8.27;;;5.70;92.90;;;4.76;83.97;100956.09;5009434;28;20230;-70
2023/01/10 07:41:08;;;;;;;26.50;8.73;;;5.70;92.90;;;4.77;84.35;100952.44;5009486;28;20198;-69
2023/01/10 07:43:37;;;;;;;20.80;8.40;;;5.70;93.00;;;4.78;84.87;100954.16;5009153;28;20219;-70
2023/01/10 07:46:08;;;;;;;23.27;8.87;;;5.70;93.10;;;4.80;84.56;100957.53;5009003;28;20224;-70
2023/01/10 07:48:40;;;;;;;20.43;7.13;;;5.70;93.00;;;4.82;84.38;100968.88;5009457;28;20232;-69
2023/01/10 07:51:08;;;;;;;21.30;7.60;;;5.70;93.00;;;4.84;84.45;100977.53;5009137;28;20273;-69
2023/01/10 07:53:38;;;;;;;17.57;7.73;;;5.70;93.00;;;4.83;83.95;100962.63;5005658;28;20204;-69
2023/01/10 07:56:07;;;;;;;16.50;7.10;;;5.70;92.90;;;4.84;83.96;100969.59;4989196;28;20211;-69
2023/01/10 07:58:35;;;;;;;18.10;7.40;;;5.70;92.80;;;4.87;83.94;100972.00;4989821;28;20292;-69
2023/01/10 08:01:06;;;;;;;19.50;7.00;;;5.80;92.80;;;4.87;83.91;100974.66;4989666;28;20192;-70
2023/01/10 08:03:35;;;;;;;21.37;7.60;;;5.80;92.70;;;4.89;83.62;100972.75;4991241;28;20660;-70
2023/01/10 08:06:09;;;;;;;17.13;7.13;;;5.80;92.80;;;4.93;83.88;100974.19;4992892;28;20263;-70
2023/01/10 08:08:38;;;;;;;24.13;7.77;;;5.80;92.80;;;4.94;84.23;100975.88;4993070;28;20232;-69
2023/01/10 08:11:06;;;;;;;13.87;6.83;;;5.90;92.70;;;4.98;83.64;100977.31;4992939;28;20247;-69
2023/01/10 08:13:35;;;;;;;19.67;8.27;;;5.90;92.80;;;4.97;84.12;100978.28;4992970;28;20300;-69
2023/01/10 08:16:07;;;;;;;29.73;11.27;;;5.80;93.20;;;4.97;84.12;100978.28;4992710;28;20579;-69
2023/01/10 08:18:35;;;;;;;27.73;8.37;;;5.90;92.90;;;4.99;84.37;100979.03;4992757;28;20258;-70
2023/01/10 08:21:05;;;;;;;66.43;21.27;;;5.90;92.80;;;5.04;83.86;100982.16;4992801;28;20208;-69
2023/01/10 08:23:33;;;;;;;57.57;17.50;;;5.90;92.80;;;5.05;84.54;100983.84;4992875;28;20204;-69
2023/01/10 08:26:02;;;;;;;40.07;13.47;;;6.00;92.90;;;5.05;84.16;100989.16;4992540;28;20236;-69
2023/01/10 08:28:30;;;;;;;32.57;11.37;;;6.00;92.90;;;5.04;84.56;100992.78;4992553;28;20236;-70
2023/01/10 08:30:58;;;;;;;36.47;10.17;;;6.00;93.00;;;5.01;84.86;100990.34;4992818;28;20534;-69
2023/01/10 08:33:27;;;;;;;42.33;12.10;;;5.90;93.00;;;5.01;84.88;101008.94;4992732;28;20211;-72
2023/01/10 08:35:55;;;;;;;27.23;9.67;;;5.90;93.20;;;5.01;85.25;101011.59;4992334;28;20204;-69
2023/01/10 08:38:24;;;;;;;26.97;10.07;;;5.90;93.30;;;5.01;85.57;101003.63;4992678;28;20299;-69
2023/01/10 08:40:52;;;;;;;23.50;9.57;;;5.90;93.40;;;5.04;85.00;101014.00;4992504;28;20231;-69
2023/01/10 08:43:20;;;;;;;24.83;10.43;;;6.00;93.40;;;5.05;85.13;101021.84;4992514;28;20220;-70
2023/01/10 08:45:50;;;;;;;23.13;10.80;;;6.00;93.50;;;5.09;85.28;101033.06;4992153;28;20236;-70
2023/01/10 08:48:18;;;;;;;23.47;11.00;;;6.00;93.40;;;5.10;85.54;101021.50;4992394;28;20278;-69
2023/01/10 08:50:46;;;;;;;24.43;10.50;;;6.00;93.50;;;5.12;85.29;101027.53;4992244;28;20212;-69
2023/01/10 08:53:14;;;;;;;27.17;11.70;;;6.10;93.40;;;5.17;84.88;101040.44;4993012;28;20207;-69
2023/01/10 08:55:44;;;;;;;18.13;10.67;;;6.10;93.30;;;5.19;85.18;101038.50;5011580;28;20281;-69
2023/01/10 08:58:12;;;;;;;23.57;10.10;;;6.10;93.20;;;5.19;85.00;101028.75;5011659;28;20224;-69
2023/01/10 09:00:40;;;;;;;21.03;10.07;;;6.10;93.10;;;5.20;84.74;101024.28;5011876;28;20215;-69
2023/01/10 09:03:08;;;;;;;28.20;10.07;;;6.10;93.20;;;5.20;84.43;101014.53;5011603;28;20219;-69
2023/01/10 09:05:36;;;;;;;25.30;10.20;;;6.10;93.10;;;5.25;84.69;101020.31;5011524;28;20246;-70
2023/01/10 09:08:05;;;;;;;23.30;9.90;;;6.10;92.80;;;5.26;84.09;101015.84;5011582;28;20238;-70
2023/01/10 09:10:33;;;;;;;21.23;9.83;;;6.20;93.30;;;5.28;84.21;101017.41;5011304;28;20203;-70
2023/01/10 09:13:03;;;;;;;26.33;10.70;;;6.20;92.80;;;5.31;83.77;101011.84;5011474;28;20577;-70
2023/01/10 09:15:34;;;;;;;21.20;9.90;;;6.20;92.60;;;5.32;83.99;101029.47;5011029;28;20203;-70
2023/01/10 09:18:05;;;;;;;22.13;10.77;;;6.20;92.60;;;5.33;84.21;101028.53;5011329;28;20231;-70
2023/01/10 09:20:36;;;;;;;20.90;10.83;;;6.20;92.70;;;5.34;84.09;101037.34;5011431;28;20196;-70
2023/01/10 09:23:10;;;;;;;23.03;11.63;;;6.20;92.80;;;5.39;83.67;101036.00;5011320;28;20219;-69
2023/01/10 09:25:38;;;;;;;25.73;11.23;;;6.30;92.50;;;5.43;83.46;101032.16;5011058;28;20211;-69
2023/01/10 09:28:08;;;;;;;22.70;10.77;;;6.30;92.40;;;5.48;83.57;101039.75;5011049;28;20246;-70
2023/01/10 09:30:37;;;;;;;22.37;11.63;;;6.40;92.40;;;5.50;83.33;101046.63;5011275;28;20207;-70
2023/01/10 09:33:06;;;;;;;29.97;12.13;;;6.40;92.40;;;5.54;83.59;101052.56;5011005;28;20577;-69
2023/01/10 09:35:37;;;;;;;28.00;11.63;;;6.40;92.40;;;5.59;83.56;101063.66;5010791;28;20270;-70
2023/01/10 09:38:13;;;;;;;27.50;13.63;;;6.50;92.40;;;5.61;83.66;101070.56;5010862;28;20236;-69
2023/01/10 09:41:13;;;;;;;42.43;17.20;;;6.50;92.50;;;5.68;83.34;101080.69;5010765;28;20219;-69
2023/01/10 09:44:01;;;;;;;38.87;15.20;;;6.60;92.40;;;5.73;82.64;101076.69;5010934;28;20223;-69
2023/01/10 09:46:41;;;;;;;29.53;13.43;;;6.60;92.00;;;5.74;83.08;101077.53;5010541;28;20223;-69
2023/01/10 09:49:26;;;;;;;24.43;11.70;;;6.60;92.10;;;5.74;83.11;101074.88;5010907;28;20203;-69
2023/01/10 09:51:58;;;;;;;31.67;12.47;;;6.60;92.20;;;5.79;82.68;101081.50;5010560;28;20200;-70
2023/01/10 09:54:29;;;;;;;32.03;14.37;;;6.70;92.00;;;5.80;82.31;101082.34;5000972;28;20319;-69
2023/01/10 09:57:01;;;;;;;28.57;12.97;;;6.70;91.90;;;5.80;82.51;101087.66;4991069;28;20212;-69
2023/01/10 09:59:40;;;;;;;28.33;13.93;;;6.70;92.20;;;5.81;82.09;101090.22;4991292;28;20204;-69
2023/01/10 10:02:25;;;;;;;27.57;12.67;;;6.70;91.90;;;5.80;82.71;101090.31;4991141;28;20215;-69
2023/01/10 10:05:10;;;;;;;29.20;12.97;;;6.70;92.00;;;5.81;82.31;101100.00;4991142;28;20212;-69
2023/01/10 10:07:39;;;;;;;24.37;12.97;;;6.70;91.70;;;5.82;82.53;101096.38;4991042;28;20232;-69
2023/01/10 10:10:16;;;;;;;29.00;11.93;;;6.70;91.80;;;5.80;81.61;101088.53;4990853;28;20212;-70
2023/01/10 10:13:00;;;;;;;20.63;11.17;;;6.70;91.60;;;5.82;81.95;101096.38;4990719;28;20212;-69
2023/01/10 10:15:42;;;;;;;26.37;12.73;;;6.70;91.50;;;5.81;82.96;101094.69;4991208;28;20228;-70
2023/01/10 10:18:25;;;;;;;29.93;12.57;;;6.70;91.80;;;5.81;82.11;101084.06;4990830;28;20232;-70
2023/01/10 10:21:04;;;;;;;27.40;11.70;;;6.70;91.80;;;5.81;82.41;101089.38;4990857;28;20220;-70
2023/01/10 10:24:02;;;;;;;30.77;13.10;;;6.70;91.70;;;5.83;82.43;101098.06;4991082;28;20218;-69
2023/01/10 10:26:36;;;;;;;27.67;12.93;;;6.70;91.90;;;5.88;81.62;101085.28;4989695;28;20227;-69
2023/01/10 10:29:46;;;;;;;25.70;12.87;;;6.70;91.50;;;5.95;82.31;101092.66;4990490;28;20228;-71
2023/01/10 10:32:39;;;;;;;20.80;11.63;;;6.80;91.70;;;5.99;81.46;101082.63;4990367;28;20199;-71
2023/01/10 10:35:18;;;;;;;22.00;12.17;;;6.90;91.40;;;6.01;81.72;101081.53;4990213;28;20208;-71
2023/01/10 10:37:51;;;;;;;24.80;13.03;;;6.90;91.30;;;6.03;82.12;101079.59;4990015;28;20227;-70
2023/01/10 10:40:24;;;;;;;29.67;13.00;;;6.90;91.60;;;6.04;81.42;101080.44;4990669;28;20208;-70
2023/01/10 10:42:56;;;;;;;28.33;13.23;;;6.90;91.20;;;6.05;80.78;101074.16;4990267;28;20220;-71
2023/01/10 10:45:38;;;;;;;27.07;13.13;;;6.90;91.00;;;6.07;80.95;101085.50;5008923;28;20506;-69
2023/01/10 10:48:18;;;;;;;26.13;13.57;;;6.90;90.90;;;6.10;81.50;101095.88;5009848;28;20255;-69